Terminal Aerodrome Forecast
Issued by NWS

Home | Current Version | Previous Version | Text Only | Print | Product List | Glossary On
Versions: 1 2 3 4 5 6 7 8 9 10 11 12 13 14 15 16 17 18
312
FTUS41 KALY 241730
TAFPSF
TAF
KPSF 241730Z 2418/2518 VRB03KT P6SM VCSH BKN040
     FM250000 VRB03KT P6SM BKN100
     FM250600 27004KT 3SM BR FEW250
     FM250800 00000KT 1/2SM FG BKN002
     FM251300 29006KT P6SM SKC=

USA.gov is the U.S. government's official web portal to all federal, state and local government web resources and services.